createdAt,value
2018-09-09T00:00:32.010Z,22.20
2018-09-09T00:03:01.627Z,22.20
2018-09-09T00:05:30.190Z,22.20
2018-09-09T00:07:58.722Z,22.20
2018-09-09T00:10:27.263Z,22.20
2018-09-09T00:12:55.878Z,22.20
2018-09-09T00:15:24.815Z,22.20
2018-09-09T00:17:53.501Z,22.20
2018-09-09T00:20:22.087Z,22.20
2018-09-09T00:22:50.797Z,22.20
2018-09-09T00:25:19.477Z,22.20
2018-09-09T00:27:48.070Z,22.20
2018-09-09T00:30:16.525Z,22.20
2018-09-09T00:32:45.073Z,22.20
2018-09-09T00:35:13.576Z,22.20
2018-09-09T00:37:42.165Z,22.20
2018-09-09T00:40:10.605Z,22.20
2018-09-09T00:42:39.276Z,22.20
2018-09-09T00:45:07.993Z,22.20
2018-09-09T00:47:36.743Z,22.20
2018-09-09T00:50:10.686Z,22.20
2018-09-09T00:52:44.669Z,22.20
2018-09-09T00:55:13.227Z,22.20
2018-09-09T00:57:41.810Z,22.20
2018-09-09T01:00:10.387Z,22.20
2018-09-09T01:02:39.192Z,22.20
2018-09-09T01:05:07.759Z,22.20
2018-09-09T01:07:36.422Z,22.20
2018-09-09T01:10:05.055Z,22.20
2018-09-09T01:12:33.503Z,22.20
2018-09-09T01:15:02.105Z,22.20
2018-09-09T01:17:30.874Z,22.20
2018-09-09T01:19:59.590Z,22.20
2018-09-09T01:22:28.397Z,22.20
2018-09-09T01:24:57.265Z,22.20
2018-09-09T01:27:26.092Z,22.20
2018-09-09T01:29:54.789Z,22.20
2018-09-09T01:32:23.361Z,22.20
2018-09-09T01:34:52.097Z,22.20
2018-09-09T01:37:20.690Z,22.20
2018-09-09T01:39:49.450Z,22.20
2018-09-09T01:42:18.062Z,22.20
2018-09-09T01:44:46.576Z,22.20
2018-09-09T01:47:14.928Z,22.20
2018-09-09T01:49:43.561Z,22.20
2018-09-09T01:52:12.115Z,22.20
2018-09-09T01:54:40.471Z,22.20
2018-09-09T01:57:09.069Z,22.20
2018-09-09T01:59:37.791Z,22.20
2018-09-09T02:02:06.731Z,22.20
2018-09-09T02:04:35.236Z,22.20
2018-09-09T02:07:03.640Z,22.20
2018-09-09T02:09:32.004Z,22.20
2018-09-09T02:12:00.533Z,22.20
2018-09-09T02:14:29.107Z,22.10
2018-09-09T02:16:57.541Z,22.20
2018-09-09T02:19:26.008Z,22.10
2018-09-09T02:21:55.562Z,22.10
2018-09-09T02:24:24.247Z,22.10
2018-09-09T02:26:57.490Z,22.10
2018-09-09T02:29:26.121Z,22.10
2018-09-09T02:31:55.283Z,22.10
2018-09-09T02:34:23.760Z,22.10
2018-09-09T02:36:55.154Z,22.10
2018-09-09T02:39:23.794Z,22.10
2018-09-09T02:41:52.509Z,22.10
2018-09-09T02:44:21.064Z,22.10
2018-09-09T02:46:49.763Z,22.10
2018-09-09T02:49:18.500Z,22.10
2018-09-09T02:51:47.117Z,22.10
2018-09-09T02:54:15.805Z,22.10
2018-09-09T02:56:44.511Z,22.10
2018-09-09T02:59:13.324Z,22.10
2018-09-09T03:01:41.934Z,22.10
2018-09-09T03:04:10.458Z,22.10
2018-09-09T03:06:38.918Z,22.10
2018-09-09T03:09:07.636Z,22.10
2018-09-09T03:11:36.508Z,22.10
2018-09-09T03:14:05.189Z,22.10
2018-09-09T03:16:34.077Z,22.10
2018-09-09T03:19:06.707Z,22.10
2018-09-09T03:21:36.392Z,22.10
2018-09-09T03:24:06.409Z,22.10
2018-09-09T03:26:35.096Z,22.10
2018-09-09T03:29:07.168Z,22.10
2018-09-09T03:31:36.558Z,22.10
2018-09-09T03:34:06.201Z,22.10
2018-09-09T03:36:36.590Z,22.10
2018-09-09T03:39:07.532Z,22.10
2018-09-09T03:41:36.584Z,22.10
2018-09-09T03:44:05.655Z,22.10
2018-09-09T03:46:36.639Z,22.10
2018-09-09T03:49:07.314Z,22.00
2018-09-09T03:54:13.083Z,22.10
2018-09-09T03:56:41.425Z,22.10
2018-09-09T03:59:09.940Z,22.10
2018-09-09T04:01:38.614Z,22.10
2018-09-09T04:04:07.141Z,22.10
2018-09-09T04:06:35.534Z,22.00
2018-09-09T04:09:04.739Z,22.00
2018-09-09T04:11:33.182Z,22.00
2018-09-09T04:14:01.532Z,22.00
2018-09-09T04:16:29.883Z,22.00
2018-09-09T04:18:58.230Z,22.00
2018-09-09T04:21:26.739Z,22.00
2018-09-09T04:23:55.269Z,22.00
2018-09-09T04:26:23.611Z,22.00
2018-09-09T04:28:52.068Z,22.00
2018-09-09T04:31:20.467Z,22.00
2018-09-09T04:33:48.819Z,22.00
2018-09-09T04:36:17.292Z,22.00
2018-09-09T04:38:46.219Z,22.00
2018-09-09T04:41:14.903Z,22.00
2018-09-09T04:43:43.393Z,22.00
2018-09-09T04:46:12.060Z,22.00
2018-09-09T04:48:40.489Z,22.00
2018-09-09T04:51:08.959Z,22.00
2018-09-09T04:53:37.444Z,22.00
2018-09-09T04:56:05.863Z,22.00
2018-09-09T04:58:36.484Z,22.00
2018-09-09T05:01:05.203Z,22.00
2018-09-09T05:03:33.669Z,22.00
2018-09-09T05:06:02.188Z,22.00
2018-09-09T05:08:30.533Z,22.00
2018-09-09T05:10:58.919Z,22.00
2018-09-09T05:13:27.382Z,22.00
2018-09-09T05:15:55.856Z,22.00
2018-09-09T05:18:24.413Z,22.00
2018-09-09T05:20:52.791Z,22.00
2018-09-09T05:23:21.360Z,22.00
2018-09-09T05:25:49.762Z,22.00
2018-09-09T05:28:18.112Z,22.00
2018-09-09T05:30:46.460Z,22.00
2018-09-09T05:33:14.810Z,22.00
2018-09-09T05:35:43.163Z,22.00
2018-09-09T05:38:11.492Z,22.00
2018-09-09T05:40:39.872Z,22.00
2018-09-09T05:43:08.276Z,21.90
2018-09-09T05:45:36.762Z,21.90
2018-09-09T05:48:05.192Z,21.90
2018-09-09T05:50:33.532Z,22.00
2018-09-09T05:53:01.862Z,21.90
2018-09-09T05:55:30.446Z,21.90
2018-09-09T05:57:58.842Z,21.90
2018-09-09T06:00:27.352Z,21.90
2018-09-09T06:02:55.843Z,21.90
2018-09-09T06:05:24.227Z,21.90
2018-09-09T06:07:52.622Z,21.90
2018-09-09T06:10:21.067Z,21.90
2018-09-09T06:12:56.162Z,21.90
2018-09-09T06:15:24.547Z,21.90
2018-09-09T06:17:52.878Z,21.90
2018-09-09T06:20:21.247Z,21.90
2018-09-09T06:22:49.626Z,21.90
2018-09-09T06:25:18.075Z,21.90
2018-09-09T06:27:46.433Z,21.90
2018-09-09T06:30:14.819Z,21.90
2018-09-09T06:32:43.186Z,21.90
2018-09-09T06:35:11.569Z,21.90
2018-09-09T06:37:40.043Z,21.90
2018-09-09T06:40:08.635Z,21.90
2018-09-09T06:42:37.103Z,21.90
2018-09-09T06:45:05.491Z,21.90
2018-09-09T06:47:33.903Z,21.90
2018-09-09T06:50:02.296Z,21.90
2018-09-09T06:52:30.731Z,21.90
2018-09-09T06:54:59.199Z,21.90
2018-09-09T06:57:27.517Z,21.90
2018-09-09T06:59:55.868Z,21.90
2018-09-09T07:02:24.285Z,21.90
2018-09-09T07:04:52.621Z,21.90
2018-09-09T07:07:21.107Z,21.90
2018-09-09T07:09:49.438Z,21.90
2018-09-09T07:12:17.777Z,21.90
2018-09-09T07:14:46.205Z,21.90
2018-09-09T07:17:14.756Z,21.90
2018-09-09T07:19:43.143Z,21.90
2018-09-09T07:22:11.854Z,21.90
2018-09-09T07:24:40.824Z,21.90
2018-09-09T07:27:09.183Z,21.90
2018-09-09T07:29:37.589Z,21.90
2018-09-09T07:32:05.997Z,21.90
2018-09-09T07:34:34.508Z,21.90
2018-09-09T07:37:02.892Z,21.90
2018-09-09T07:39:31.241Z,21.90
2018-09-09T07:41:59.657Z,21.90
2018-09-09T07:44:28.062Z,21.90
2018-09-09T07:46:56.627Z,21.90
2018-09-09T07:49:24.994Z,21.90
2018-09-09T07:51:53.317Z,21.90
2018-09-09T07:54:21.678Z,21.90
2018-09-09T07:56:50.063Z,21.90
2018-09-09T07:59:19.424Z,21.90
2018-09-09T08:01:47.793Z,21.90
2018-09-09T08:04:16.188Z,21.90
2018-09-09T08:06:44.501Z,21.90
2018-09-09T08:09:12.872Z,21.90
2018-09-09T08:11:41.181Z,21.90
2018-09-09T08:14:10.620Z,21.90
2018-09-09T08:16:38.972Z,21.90
2018-09-09T08:19:07.352Z,21.90
2018-09-09T08:21:35.713Z,21.90
2018-09-09T08:24:04.169Z,21.90
2018-09-09T08:26:32.502Z,21.90
2018-09-09T08:29:00.846Z,21.90
2018-09-09T08:31:29.218Z,21.90
2018-09-09T08:33:57.588Z,21.90
2018-09-09T08:36:25.936Z,21.90
2018-09-09T08:38:54.283Z,21.90
2018-09-09T08:41:22.658Z,21.80
2018-09-09T08:43:51.212Z,21.90
2018-09-09T08:46:19.702Z,21.90
2018-09-09T08:48:48.024Z,21.90
2018-09-09T08:51:16.359Z,21.90
2018-09-09T08:53:44.788Z,21.90
2018-09-09T08:56:13.199Z,21.90
2018-09-09T08:58:41.547Z,21.90
2018-09-09T09:01:10.086Z,21.90
2018-09-09T09:03:38.491Z,21.90
2018-09-09T09:06:06.963Z,21.90
2018-09-09T09:08:35.288Z,21.90
2018-09-09T09:11:03.636Z,21.90
2018-09-09T09:13:32.072Z,21.90
2018-09-09T09:16:00.548Z,21.90
2018-09-09T09:18:29.012Z,21.90
2018-09-09T09:20:57.369Z,21.90
2018-09-09T09:23:26.002Z,22.00
2018-09-09T09:25:55.080Z,22.00
2018-09-09T09:28:24.223Z,22.00
2018-09-09T09:30:53.601Z,22.00
2018-09-09T09:33:21.991Z,22.00
2018-09-09T09:35:51.671Z,22.00
2018-09-09T09:38:21.344Z,22.00
2018-09-09T09:40:50.084Z,22.00
2018-09-09T09:43:18.597Z,22.00
2018-09-09T09:45:47.079Z,22.00
2018-09-09T09:48:15.859Z,22.00
2018-09-09T09:50:44.283Z,22.10
2018-09-09T09:53:12.661Z,22.10
2018-09-09T09:55:41.118Z,22.00
2018-09-09T09:58:09.645Z,22.10
2018-09-09T10:00:43.327Z,22.10
2018-09-09T10:03:11.847Z,22.10
2018-09-09T10:05:40.266Z,22.10
2018-09-09T10:08:08.698Z,22.20
2018-09-09T10:10:37.172Z,22.20
2018-09-09T10:13:05.691Z,22.20
2018-09-09T10:15:34.233Z,22.20
2018-09-09T10:18:02.984Z,22.20
2018-09-09T10:20:31.571Z,22.30
2018-09-09T10:22:59.992Z,22.30
2018-09-09T10:25:28.467Z,22.20
2018-09-09T10:27:56.917Z,22.30
2018-09-09T10:30:25.547Z,22.20
2018-09-09T10:32:53.961Z,22.20
2018-09-09T10:35:22.376Z,22.30
2018-09-09T10:37:50.741Z,22.20
2018-09-09T10:40:19.116Z,22.30
2018-09-09T10:42:47.438Z,22.30
2018-09-09T10:45:15.942Z,22.30
2018-09-09T10:47:45.087Z,22.30
2018-09-09T10:50:13.909Z,22.30
2018-09-09T10:52:42.425Z,22.30
2018-09-09T10:55:10.782Z,22.30
2018-09-09T10:57:39.128Z,22.40
2018-09-09T11:00:07.798Z,22.40
2018-09-09T11:02:36.197Z,22.40
2018-09-09T11:05:04.755Z,22.40
2018-09-09T11:07:33.134Z,22.40
2018-09-09T11:10:01.478Z,22.40
2018-09-09T11:12:30.766Z,22.50
2018-09-09T11:15:00.520Z,22.40
2018-09-09T11:17:30.054Z,22.40
2018-09-09T11:19:58.909Z,22.50
2018-09-09T11:22:28.018Z,22.50
2018-09-09T11:24:56.438Z,22.50
2018-09-09T11:27:25.205Z,22.50
2018-09-09T11:29:53.803Z,22.50
2018-09-09T11:32:22.218Z,22.50
2018-09-09T11:34:50.616Z,22.50
2018-09-09T11:37:19.110Z,22.50
2018-09-09T11:39:47.437Z,22.60
2018-09-09T11:42:15.917Z,22.60
2018-09-09T11:44:44.288Z,22.60
2018-09-09T11:47:12.619Z,22.60
2018-09-09T11:49:41.193Z,22.60
2018-09-09T11:52:09.581Z,22.60
2018-09-09T11:54:37.907Z,22.60
2018-09-09T11:57:06.433Z,22.70
2018-09-09T11:59:34.940Z,22.70
2018-09-09T12:02:03.518Z,22.70
2018-09-09T12:04:31.848Z,22.70
2018-09-09T12:07:00.255Z,22.70
2018-09-09T12:09:28.773Z,22.70
2018-09-09T12:11:57.270Z,22.70
2018-09-09T12:14:25.807Z,22.70
2018-09-09T12:16:54.173Z,22.70
2018-09-09T12:19:22.489Z,22.70
2018-09-09T12:21:51.008Z,22.70
2018-09-09T12:24:19.411Z,22.70
2018-09-09T12:26:47.848Z,22.80
2018-09-09T12:29:16.366Z,22.80
2018-09-09T12:31:44.729Z,22.80
2018-09-09T12:34:13.051Z,22.80
2018-09-09T12:36:41.427Z,22.80
2018-09-09T12:39:10.184Z,22.80
2018-09-09T12:41:38.959Z,22.80
2018-09-09T12:44:12.782Z,22.80
2018-09-09T12:46:46.555Z,22.90
2018-09-09T12:49:14.947Z,22.90
2018-09-09T12:51:43.383Z,22.90
2018-09-09T12:54:11.900Z,22.90
2018-09-09T12:56:40.252Z,22.90
2018-09-09T12:59:08.660Z,22.90
2018-09-09T13:01:37.066Z,23.00
2018-09-09T13:04:05.552Z,23.00
2018-09-09T13:06:33.965Z,23.00
2018-09-09T13:09:02.311Z,23.00
2018-09-09T13:11:30.619Z,23.00
2018-09-09T13:13:58.961Z,23.00
2018-09-09T13:16:27.293Z,23.00
2018-09-09T13:18:55.691Z,23.00
2018-09-09T13:21:24.054Z,23.00
2018-09-09T13:23:52.440Z,23.00
2018-09-09T13:26:20.813Z,23.10
2018-09-09T13:28:49.194Z,23.10
2018-09-09T13:31:17.576Z,23.10
2018-09-09T13:33:45.982Z,23.10
2018-09-09T13:36:14.397Z,23.10
2018-09-09T13:38:43.255Z,23.10
2018-09-09T13:41:11.801Z,23.10
2018-09-09T13:43:40.288Z,23.10
2018-09-09T13:46:08.759Z,23.10
2018-09-09T13:48:37.117Z,23.10
2018-09-09T13:51:05.663Z,23.10
2018-09-09T13:53:34.104Z,23.20
2018-09-09T13:56:02.704Z,23.20
2018-09-09T13:58:31.225Z,23.20
2018-09-09T14:00:59.665Z,23.20
2018-09-09T14:03:28.141Z,23.20
2018-09-09T14:05:56.586Z,23.20
2018-09-09T14:08:26.245Z,23.20
2018-09-09T14:10:54.619Z,23.20
2018-09-09T14:13:23.061Z,23.20
2018-09-09T14:15:51.434Z,23.20
2018-09-09T14:18:20.801Z,23.20
2018-09-09T14:20:49.339Z,23.20
2018-09-09T14:23:17.803Z,23.20
2018-09-09T14:25:46.225Z,23.30
2018-09-09T14:28:14.604Z,23.30
2018-09-09T14:30:42.961Z,23.30
2018-09-09T14:33:11.343Z,23.30
2018-09-09T14:35:39.673Z,23.30
2018-09-09T14:38:08.106Z,23.30
2018-09-09T14:40:36.524Z,23.30
2018-09-09T14:43:04.886Z,23.30
2018-09-09T14:45:33.247Z,23.30
2018-09-09T14:48:01.642Z,23.30
2018-09-09T14:50:30.063Z,23.30
2018-09-09T14:52:58.530Z,23.30
2018-09-09T14:55:27.151Z,23.30
2018-09-09T14:57:55.566Z,23.30
2018-09-09T15:00:24.253Z,23.30
2018-09-09T15:02:52.690Z,23.30
2018-09-09T15:05:21.064Z,23.30
2018-09-09T15:07:49.445Z,23.30
2018-09-09T15:10:17.841Z,23.30
2018-09-09T15:12:46.248Z,23.30
2018-09-09T15:15:14.679Z,23.30
2018-09-09T15:17:43.079Z,23.30
2018-09-09T15:20:11.558Z,23.30
2018-09-09T15:22:39.929Z,23.30
2018-09-09T15:25:08.326Z,23.30
2018-09-09T15:27:36.661Z,23.30
2018-09-09T15:30:05.091Z,23.20
2018-09-09T15:32:33.602Z,23.20
2018-09-09T15:35:02.062Z,23.20
2018-09-09T15:37:35.061Z,23.20
2018-09-09T15:40:03.623Z,23.20
2018-09-09T15:42:31.929Z,23.20
2018-09-09T15:45:00.340Z,23.20
2018-09-09T15:47:28.725Z,23.20
2018-09-09T15:49:57.080Z,23.20
2018-09-09T15:52:25.412Z,23.20
2018-09-09T15:54:53.779Z,23.20
2018-09-09T15:57:22.304Z,23.20
2018-09-09T15:59:50.720Z,23.20
2018-09-09T16:02:19.186Z,23.20
2018-09-09T16:04:47.647Z,23.20
2018-09-09T16:07:16.093Z,23.20
2018-09-09T16:09:44.479Z,23.20
2018-09-09T16:12:12.846Z,23.10
2018-09-09T16:14:41.203Z,23.10
2018-09-09T16:17:09.660Z,23.10
2018-09-09T16:19:38.129Z,23.10
2018-09-09T16:22:06.592Z,23.10
2018-09-09T16:24:34.953Z,23.10
2018-09-09T16:27:03.356Z,23.10
2018-09-09T16:29:31.737Z,23.10
2018-09-09T16:32:00.251Z,23.10
2018-09-09T16:34:28.578Z,23.10
2018-09-09T16:36:57.096Z,23.10
2018-09-09T16:39:25.571Z,23.10
2018-09-09T16:41:53.935Z,23.10
2018-09-09T16:44:22.303Z,23.10
2018-09-09T16:46:50.840Z,23.10
2018-09-09T16:49:19.288Z,23.10
2018-09-09T16:51:47.708Z,23.10
2018-09-09T16:54:16.228Z,23.10
2018-09-09T16:56:44.756Z,23.10
2018-09-09T16:59:13.181Z,23.10
2018-09-09T17:01:41.570Z,23.00
2018-09-09T17:04:10.325Z,23.10
2018-09-09T17:06:38.807Z,23.00
2018-09-09T17:09:08.934Z,23.00
2018-09-09T17:11:37.534Z,23.00
2018-09-09T17:14:06.002Z,23.00
2018-09-09T17:16:34.388Z,23.00
2018-09-09T17:19:02.893Z,23.00
2018-09-09T17:21:31.260Z,23.00
2018-09-09T17:23:59.630Z,23.00
2018-09-09T17:26:28.108Z,23.00
2018-09-09T17:28:56.660Z,23.00
2018-09-09T17:31:25.174Z,23.00
2018-09-09T17:33:53.896Z,23.00
2018-09-09T17:36:22.428Z,23.00
2018-09-09T17:38:51.180Z,22.90
2018-09-09T17:41:20.116Z,22.90
2018-09-09T17:43:48.608Z,22.90
2018-09-09T17:46:18.472Z,22.90
2018-09-09T17:48:47.017Z,22.90
2018-09-09T17:51:15.462Z,22.90
2018-09-09T17:53:43.910Z,22.80
2018-09-09T17:56:12.385Z,22.80
2018-09-09T17:58:40.954Z,22.80
2018-09-09T18:01:09.404Z,22.80
2018-09-09T18:03:38.000Z,22.80
2018-09-09T18:06:06.482Z,22.70
2018-09-09T18:08:34.956Z,22.70
2018-09-09T18:11:03.595Z,22.70
2018-09-09T18:13:31.899Z,22.70
2018-09-09T18:16:00.318Z,22.70
2018-09-09T18:18:28.873Z,22.60
2018-09-09T18:20:57.504Z,22.60
2018-09-09T18:23:26.128Z,22.60
2018-09-09T18:25:54.589Z,22.60
2018-09-09T18:28:23.149Z,22.60
2018-09-09T18:30:51.758Z,22.60
2018-09-09T18:33:20.417Z,22.60
2018-09-09T18:35:50.046Z,22.50
2018-09-09T18:38:38.764Z,22.50
2018-09-09T18:41:17.891Z,22.50
2018-09-09T18:43:46.278Z,22.50
2018-09-09T18:46:14.687Z,22.40
2018-09-09T18:48:43.132Z,22.50
2018-09-09T18:51:11.571Z,22.50
2018-09-09T18:53:41.205Z,22.40
2018-09-09T18:56:11.274Z,22.50
2018-09-09T18:58:40.671Z,22.40
2018-09-09T19:01:10.111Z,22.50
2018-09-09T19:03:38.626Z,22.40
2018-09-09T19:06:07.142Z,22.50
2018-09-09T19:08:35.589Z,22.50
2018-09-09T19:11:04.504Z,22.50
2018-09-09T19:13:33.135Z,22.50
2018-09-09T19:16:01.561Z,22.50
2018-09-09T19:18:29.934Z,22.40
2018-09-09T19:20:58.702Z,22.40
2018-09-09T19:23:27.173Z,22.40
2018-09-09T19:25:56.017Z,22.40
2018-09-09T19:28:24.797Z,22.40
2018-09-09T19:30:53.153Z,22.40
2018-09-09T19:33:23.569Z,22.40
2018-09-09T19:35:57.487Z,22.40
2018-09-09T19:38:36.302Z,22.40
2018-09-09T19:41:38.918Z,22.40
2018-09-09T19:44:09.276Z,22.40
2018-09-09T19:46:39.009Z,22.40
2018-09-09T19:49:18.320Z,22.40
2018-09-09T19:51:47.295Z,22.40
2018-09-09T19:54:15.984Z,22.40
2018-09-09T19:57:00.434Z,22.50
2018-09-09T19:59:29.492Z,22.50
2018-09-09T20:01:59.857Z,22.50
2018-09-09T20:04:28.944Z,22.50
2018-09-09T20:07:03.634Z,22.50
2018-09-09T20:09:32.540Z,22.50
2018-09-09T20:12:01.563Z,22.50
2018-09-09T20:14:30.885Z,22.50
2018-09-09T20:17:00.472Z,22.50
2018-09-09T20:19:29.264Z,22.50
2018-09-09T20:21:57.802Z,22.50
2018-09-09T20:24:26.234Z,22.50
2018-09-09T20:26:54.742Z,22.50
2018-09-09T20:29:23.368Z,22.50
2018-09-09T20:31:51.854Z,22.50
2018-09-09T20:34:20.476Z,22.50
2018-09-09T20:36:49.333Z,22.50
2018-09-09T20:39:17.763Z,22.50
2018-09-09T20:41:46.763Z,22.50
2018-09-09T20:44:15.602Z,22.50
2018-09-09T20:46:45.191Z,22.50
2018-09-09T20:49:14.397Z,22.50
2018-09-09T20:51:43.157Z,22.50
2018-09-09T20:54:11.574Z,22.50
2018-09-09T20:56:40.175Z,22.50
2018-09-09T20:59:08.892Z,22.50
2018-09-09T21:01:37.383Z,22.50
2018-09-09T21:04:05.927Z,22.50
2018-09-09T21:06:34.578Z,22.50
2018-09-09T21:09:03.861Z,22.50
2018-09-09T21:11:32.547Z,22.50
2018-09-09T21:14:01.694Z,22.50
2018-09-09T21:16:30.293Z,22.50
2018-09-09T21:18:59.438Z,22.50
2018-09-09T21:21:28.005Z,22.50
2018-09-09T21:23:57.037Z,22.50
2018-09-09T21:26:25.800Z,22.50
2018-09-09T21:28:54.314Z,22.50
2018-09-09T21:31:22.920Z,22.50
2018-09-09T21:33:51.377Z,22.50
2018-09-09T21:36:19.895Z,22.50
2018-09-09T21:38:48.286Z,22.50
2018-09-09T21:41:16.751Z,22.50
2018-09-09T21:43:45.342Z,22.50
2018-09-09T21:46:13.728Z,22.50
2018-09-09T21:48:42.278Z,22.50
2018-09-09T21:51:10.897Z,22.50
2018-09-09T21:53:39.544Z,22.50
2018-09-09T21:56:07.937Z,22.50
2018-09-09T21:58:36.674Z,22.50
2018-09-09T22:01:10.612Z,22.50
2018-09-09T22:03:39.107Z,22.50
2018-09-09T22:06:07.818Z,22.50
2018-09-09T22:08:36.222Z,22.50
2018-09-09T22:11:04.730Z,22.50
2018-09-09T22:13:33.222Z,22.50
2018-09-09T22:16:01.666Z,22.50
2018-09-09T22:18:30.070Z,22.50
2018-09-09T22:21:00.026Z,22.50
2018-09-09T22:23:28.463Z,22.50
2018-09-09T22:25:57.117Z,22.50
2018-09-09T22:28:25.621Z,22.50
2018-09-09T22:30:54.149Z,22.50
2018-09-09T22:33:25.395Z,22.50
2018-09-09T22:35:53.829Z,22.50
2018-09-09T22:38:23.345Z,22.50
2018-09-09T22:40:51.855Z,22.40
2018-09-09T22:43:21.096Z,22.50
2018-09-09T22:45:50.773Z,22.50
2018-09-09T22:48:20.139Z,22.40
2018-09-09T22:50:48.974Z,22.40
2018-09-09T22:53:17.569Z,22.40
2018-09-09T22:55:46.123Z,22.40
2018-09-09T22:58:14.757Z,22.40
2018-09-09T23:00:43.924Z,22.50
2018-09-09T23:03:14.869Z,22.40
2018-09-09T23:05:43.525Z,22.40
2018-09-09T23:08:12.281Z,22.50
2018-09-09T23:10:41.688Z,22.40
2018-09-09T23:13:10.168Z,22.40
2018-09-09T23:15:40.010Z,22.40
2018-09-09T23:18:08.603Z,22.40
2018-09-09T23:20:37.350Z,22.40
2018-09-09T23:23:05.996Z,22.40
2018-09-09T23:25:34.590Z,22.40
2018-09-09T23:28:03.234Z,22.40
2018-09-09T23:30:31.878Z,22.40
2018-09-09T23:33:00.616Z,22.40
2018-09-09T23:35:29.122Z,22.40
2018-09-09T23:37:58.606Z,22.40
2018-09-09T23:40:27.472Z,22.40
2018-09-09T23:42:56.263Z,22.40
2018-09-09T23:45:24.812Z,22.50
2018-09-09T23:47:53.312Z,22.50
2018-09-09T23:50:21.748Z,22.40
2018-09-09T23:52:50.170Z,22.40
2018-09-09T23:55:18.862Z,22.40
2018-09-09T23:57:47.565Z,22.50
